Time;durP1;ratioP1;P1;durP2;ratioP2;P2;SDS_P1;SDS_P2;PMS_P1;PMS_P2;Temp;Humidity;BMP_temperature;BMP_pressure;BME280_temperature;BME280_humidity;BME280_pressure;Samples;Min_cycle;Max_cycle;Signal;HPM_P1;HPM_P2
2022/04/15 00:01:11;;;;;;;;;10.25;7.00;;;;;15.39;100.00;102029.06;5051735;28;44878;-85
2022/04/15 00:03:36;;;;;;;;;11.00;8.00;;;;;15.36;100.00;102035.47;5050829;28;46665;-84
2022/04/15 00:06:08;;;;;;;;;7.00;7.00;;;;;15.33;100.00;102026.81;5049546;28;44826;-86
2022/04/15 00:08:35;;;;;;;;;6.60;6.60;;;;;15.28;100.00;102031.59;5043821;28;44774;-87
2022/04/15 00:11:01;;;;;;;;;8.60;6.40;;;;;15.22;100.00;102032.84;5042268;28;45286;-84
2022/04/15 00:13:29;;;;;;;;;11.00;8.50;;;;;15.20;100.00;102036.59;5041444;28;45368;-86
2022/04/15 00:15:55;;;;;;;;;6.20;5.20;;;;;15.16;100.00;102028.75;5058970;28;44705;-83
2022/04/15 00:18:21;;;;;;;;;7.20;6.60;;;;;15.15;100.00;102026.19;5070599;28;45383;-86
2022/04/15 00:20:47;;;;;;;;;6.25;6.25;;;;;15.16;100.00;102030.59;5057259;28;44770;-84
2022/04/15 00:23:12;;;;;;;;;6.50;6.00;;;;;15.12;100.00;102029.91;5042589;28;45252;-85
2022/04/15 00:25:37;;;;;;;;;8.50;7.25;;;;;15.14;100.00;102033.38;5044791;28;44761;-85
2022/04/15 00:28:03;;;;;;;;;7.75;6.25;;;;;15.12;100.00;102031.75;5029348;28;44922;-85
2022/04/15 00:30:29;;;;;;;;;6.75;5.75;;;;;15.12;100.00;102035.28;5028240;28;44938;-85
2022/04/15 00:32:54;;;;;;;;;5.50;5.50;;;;;15.09;100.00;102027.47;5042128;28;47328;-84
2022/04/15 00:35:20;;;;;;;;;10.00;7.00;;;;;15.07;100.00;102029.38;5027524;28;44789;-84
2022/04/15 00:37:48;;;;;;;;;3.75;3.75;;;;;15.07;100.00;102028.50;5048843;28;45372;-85
2022/04/15 00:40:14;;;;;;;;;9.20;9.20;;;;;15.06;100.00;102033.00;5047974;28;44918;-85
2022/04/15 00:42:40;;;;;;;;;9.00;9.00;;;;;15.05;100.00;102033.97;5032112;28;45267;-84
2022/04/15 00:45:09;;;;;;;;;10.00;6.25;;;;;15.05;100.00;102023.25;5050735;28;44822;-84
2022/04/15 00:47:47;;;;;;;;;8.40;7.80;;;;;15.09;100.00;102029.28;5051800;28;44826;-84
2022/04/15 00:50:15;;;;;;;;;6.40;6.40;;;;;15.09;100.00;102029.28;5063939;28;45241;-85
2022/04/15 00:52:44;;;;;;;;;9.60;5.40;;;;;15.08;100.00;102025.72;5045727;28;45177;-85
2022/04/15 00:55:11;;;;;;;;;5.80;5.80;;;;;15.10;100.00;102029.19;5046893;28;44804;-85
2022/04/15 00:57:44;;;;;;;;;6.40;6.20;;;;;15.09;100.00;102030.16;5044312;28;45251;-86
2022/04/15 01:00:12;;;;;;;;;6.80;6.80;;;;;15.08;100.00;102027.53;5040443;28;45413;-85
2022/04/15 01:02:38;;;;;;;;;6.00;6.00;;;;;15.07;100.00;102033.88;5040326;28;47281;-85
2022/04/15 01:05:07;;;;;;;;;5.40;5.40;;;;;15.05;100.00;102030.44;5039948;28;44747;-85
2022/04/15 01:08:01;;;;;;;;;8.80;8.20;;;;;15.04;100.00;102036.75;5023059;28;45313;-85
2022/04/15 01:10:27;;;;;;;;;7.20;7.20;;;;;15.05;100.00;102033.13;5037576;28;44812;-85
2022/04/15 01:12:56;;;;;;;;;6.00;6.00;;;;;15.05;100.00;102033.13;5030587;28;46750;-84
2022/04/15 01:15:27;;;;;;;;;7.80;6.80;;;;;14.99;100.00;102030.81;5030722;28;44684;-85
2022/04/15 01:17:54;;;;;;;;;10.00;8.00;;;;;14.99;100.00;102033.50;5044118;28;45465;-85
2022/04/15 01:20:20;;;;;;;;;9.50;5.75;;;;;14.93;100.00;102029.41;5044845;28;45475;-85
2022/04/15 01:22:56;;;;;;;;;7.00;7.00;;;;;14.89;100.00;102035.91;5044197;28;45285;-85
2022/04/15 01:25:21;;;;;;;;;6.80;6.80;;;;;14.85;100.00;102031.72;5044945;28;45441;-85
2022/04/15 01:27:48;;;;;;;;;9.50;8.75;;;;;14.81;100.00;102039.09;5063973;28;44772;-85
2022/04/15 01:30:16;;;;;;;;;14.75;10.00;;;;;14.78;100.00;102041.09;5064160;28;45502;-86
2022/04/15 01:32:43;;;;;;;;;11.00;7.75;;;;;14.77;100.00;102042.06;5044108;28;46291;-86
2022/04/15 01:35:09;;;;;;;;;12.20;10.00;;;;;14.74;100.00;102045.78;5062293;28;45285;-86
2022/04/15 01:37:37;;;;;;;;;11.80;8.60;;;;;14.72;100.00;102038.81;5047497;28;45291;-85
2022/04/15 01:40:08;;;;;;;;;11.00;8.00;;;;;14.72;100.00;102039.66;5062442;28;45391;-86
2022/04/15 01:42:35;;;;;;;;;8.40;7.40;;;;;14.71;100.00;102042.44;5060850;28;45369;-85
2022/04/15 01:45:01;;;;;;;;;9.40;7.40;;;;;14.67;100.00;102036.44;5061344;28;45263;-85
2022/04/15 01:47:27;;;;;;;;;9.00;9.00;;;;;14.68;100.00;102037.28;5066760;28;45430;-85
2022/04/15 01:49:53;;;;;;;;;7.00;7.00;;;;;14.67;100.00;102046.28;5055516;28;45285;-86
2022/04/15 01:52:18;;;;;;;;;10.75;9.00;;;;;14.63;100.00;102041.09;5048531;28;45376;-84
2022/04/15 01:54:45;;;;;;;;;6.75;6.75;;;;;14.63;100.00;102040.25;5046889;28;45318;-85
2022/04/15 01:57:11;;;;;;;;;11.40;9.80;;;;;14.60;100.00;102045.78;5042322;28;45247;-85
2022/04/15 01:59:37;;;;;;;;;9.25;7.75;;;;;14.58;100.00;102040.53;5041064;28;45341;-84
2022/04/15 02:02:04;;;;;;;;;7.40;7.40;;;;;14.56;100.00;102039.78;5041213;28;45245;-84
2022/04/15 02:04:30;;;;;;;;;8.00;8.00;;;;;14.56;100.00;102039.78;5047510;28;45347;-85
2022/04/15 02:06:55;;;;;;;;;8.00;8.00;;;;;14.52;100.00;102038.25;5045470;28;44757;-84
2022/04/15 02:09:21;;;;;;;;;10.50;8.00;;;;;14.50;100.00;102032.13;5043297;28;44733;-86
2022/04/15 02:11:47;;;;;;;;;9.75;8.50;;;;;14.48;100.00;102030.53;5039672;28;46738;-82
2022/04/15 02:14:13;;;;;;;;;9.20;9.20;;;;;14.44;100.00;102042.31;5039704;28;44731;-86
2022/04/15 02:16:40;;;;;;;;;9.00;8.20;;;;;14.38;100.00;102038.22;5006089;28;45343;-84
2022/04/15 02:19:06;;;;;;;;;8.75;7.25;;;;;14.33;100.00;102038.50;5039573;28;45000;-86
2022/04/15 02:21:32;;;;;;;;;7.75;7.75;;;;;14.31;100.00;102044.88;5039283;28;45569;-86
2022/04/15 02:23:58;;;;;;;;;9.80;7.60;;;;;14.29;100.00;102041.47;5039149;28;45493;-86
2022/04/15 02:26:24;;;;;;;;;10.75;6.50;;;;;14.28;100.00;102045.09;5038430;28;45420;-85
2022/04/15 02:28:50;;;;;;;;;8.50;8.25;;;;;14.26;100.00;102049.66;5024215;28;45706;-85
2022/04/15 02:31:15;;;;;;;;;10.00;8.75;;;;;14.25;100.00;102045.28;5029308;28;45491;-85
2022/04/15 02:33:41;;;;;;;;;14.25;10.75;;;;;14.24;100.00;102046.22;5034948;28;44852;-86
2022/04/15 02:36:07;;;;;;;;;10.25;10.00;;;;;14.23;100.00;102041.84;5044820;28;44886;-86
2022/04/15 02:38:33;;;;;;;;;9.75;9.75;;;;;14.20;100.00;102050.91;5050032;28;44833;-85
2022/04/15 02:40:59;;;;;;;;;12.25;9.75;;;;;14.17;100.00;102043.09;5060066;28;45136;-85
2022/04/15 02:43:31;;;;;;;;;13.00;11.50;;;;;14.16;100.00;102041.34;5052065;28;44844;-85
2022/04/15 03:00:41;;;;;;;;;;;;;;;;;;;;;
2022/04/15 03:06:47;;;;;;;;;10.80;9.40;;;;;13.91;100.00;102055.34;5002052;28;45437;-85
2022/04/15 03:17:40;;;;;;;;;12.75;12.25;;;;;13.82;100.00;102054.06;4822631;29;44827;-85
2022/04/15 03:34:16;;;;;;;;;15.25;14.25;;;;;13.76;100.00;102051.78;4754125;29;45271;-86
2022/04/15 03:37:42;;;;;;;;;17.40;14.00;;;;;13.77;100.00;102058.81;4739139;29;45315;-86
2022/04/15 03:40:51;;;;;;;;;14.25;11.00;;;;;13.78;100.00;102059.69;4752578;29;44917;-85
2022/04/15 03:53:35;;;;;;;;;17.25;15.75;;;;;13.71;100.00;102061.88;4926252;28;44800;-87
2022/04/15 03:56:07;;;;;;;;;9.50;9.50;;;;;13.70;100.00;102068.16;4930762;28;44878;-85
2022/04/15 04:02:50;;;;;;;;;;;;;;;;;;;;;
2022/04/15 04:26:46;;;;;;;;;19.50;16.25;;;;;13.43;100.00;102080.44;4783929;29;45050;-87
2022/04/15 04:32:58;;;;;;;;;14.40;13.40;;;;;13.37;100.00;102079.84;4740139;29;45354;-86
2022/04/15 04:36:23;;;;;;;;;14.00;14.00;;;;;13.38;100.00;102086.03;4730633;29;45484;-85
2022/04/15 04:56:18;;;;;;;;;18.20;16.60;;;;;13.26;100.00;102098.28;4761413;29;44866;-87
2022/04/15 05:02:40;;;;;;;;;17.50;17.50;;;;;13.23;100.00;102102.94;4765296;29;44810;-85
2022/04/15 05:05:10;;;;;;;;;22.00;18.75;;;;;13.25;100.00;102104.56;4759844;29;45306;-86
2022/04/15 05:07:39;;;;;;;;;17.00;15.20;;;;;13.22;100.00;102103.88;4737036;29;45541;-88
2022/04/15 05:10:05;;;;;;;;;19.25;17.50;;;;;13.26;100.00;102108.97;4735201;30;45407;-88
2022/04/15 05:12:31;;;;;;;;;17.25;15.25;;;;;13.30;100.00;102121.19;4764950;29;45557;-88
2022/04/15 05:14:59;;;;;;;;;17.75;14.00;;;;;13.35;100.00;102118.25;4777930;29;46720;-85
2022/04/15 05:17:25;;;;;;;;;16.20;14.60;;;;;13.44;100.00;102120.41;4807396;29;45456;-88
2022/04/15 05:19:53;;;;;;;;;19.00;19.00;;;;;13.50;100.00;102119.19;4807084;29;45460;-87
2022/04/15 05:22:21;;;;;;;;;15.25;13.50;;;;;13.56;100.00;102124.19;4832977;29;44802;-86
2022/04/15 05:32:18;;;;;;;;;21.50;18.00;;;;;13.91;100.00;102131.97;4934799;28;44938;-87
2022/04/15 05:38:25;;;;;;;;;17.75;16.75;;;;;14.09;100.00;102130.88;4874393;29;45062;-85
2022/04/15 05:40:54;;;;;;;;;18.50;13.50;;;;;14.23;100.00;102138.06;4871914;29;44829;-86
2022/04/15 05:54:03;;;;;;;;;16.80;14.60;;;;;14.68;100.00;102139.78;4812323;29;45373;-87
2022/04/15 05:56:38;;;;;;;;;16.00;12.20;;;;;14.65;100.00;102134.66;4808545;29;44855;-85
2022/04/15 05:59:30;;;;;;;;;11.50;11.50;;;;;14.77;100.00;102133.00;4811055;29;45603;-86
2022/04/15 06:01:58;;;;;;;;;17.40;17.40;;;;;14.80;100.00;102136.38;4810993;29;46554;-85
2022/04/15 06:04:28;;;;;;;;;15.20;14.20;;;;;14.82;100.00;102142.47;4799882;29;45371;-86
2022/04/15 06:06:53;;;;;;;;;16.80;13.60;;;;;14.82;100.00;102149.63;4815396;29;45423;-87
2022/04/15 06:10:06;;;;;;;;;;;;;;;;;;;;;
2022/04/15 06:22:04;;;;;;;;;24.00;17.00;;;;;15.08;100.00;102161.38;4774128;29;44843;-88
2022/04/15 06:25:15;;;;;;;;;15.75;14.25;;;;;15.15;100.00;102163.56;4781133;29;45159;-86
2022/04/15 06:28:13;;;;;;;;;19.60;16.00;;;;;15.17;100.00;102168.81;4817009;29;44901;-85
2022/04/15 06:30:38;;;;;;;;;12.00;12.00;;;;;15.31;100.00;102165.28;4794930;29;44817;-88
2022/04/15 06:34:01;;;;;;;;;16.00;14.75;;;;;15.47;100.00;102170.50;4811219;29;45275;-86
2022/04/15 06:36:26;;;;;;;;;16.40;13.60;;;;;15.46;100.00;102169.63;4795534;29;46785;-86
2022/04/15 06:39:43;;;;;;;;;9.00;9.00;;;;;15.36;100.00;102172.03;4813342;29;45339;-85
2022/04/15 06:42:46;;;;;;;;;12.80;12.40;;;;;15.37;100.00;102171.09;4809493;29;44850;-84
2022/04/15 07:00:18;;;;;;;;;12.60;11.40;;;;;15.90;100.00;102173.94;2927088;22;45378;-88
2022/04/15 07:02:44;;;;;;;;;11.20;11.20;;;;;16.01;100.00;102176.78;5022930;28;45235;-84
2022/04/15 07:05:44;;;;;;;;;12.50;11.25;;;;;16.15;100.00;102166.00;5027708;28;44671;-86
2022/04/15 07:08:10;;;;;;;;;16.20;13.40;;;;;16.19;100.00;102171.97;5014109;28;45761;-86
2022/04/15 07:10:44;;;;;;;;;14.20;13.40;;;;;16.13;100.00;102173.25;5011840;28;46255;-84
2022/04/15 07:13:10;;;;;;;;;17.40;16.00;;;;;16.22;100.00;102182.50;5005583;28;44737;-86
2022/04/15 07:15:46;;;;;;;;;14.40;12.20;;;;;16.26;100.00;102175.13;5022470;28;44998;-83
2022/04/15 07:18:12;;;;;;;;;17.60;14.20;;;;;16.33;100.00;102181.78;5015223;28;44806;-84
2022/04/15 07:20:43;;;;;;;;;15.40;13.60;;;;;16.34;100.00;102183.50;5015629;28;45575;-85
2022/04/15 07:23:20;;;;;;;;;15.60;11.20;;;;;16.32;100.00;102188.09;4996019;28;44763;-84
2022/04/15 07:26:14;;;;;;;;;12.40;10.40;;;;;16.40;100.00;102193.81;5023096;28;45477;-84
2022/04/15 07:28:39;;;;;;;;;8.40;8.40;;;;;16.50;100.00;102186.00;5014922;28;44771;-88
2022/04/15 07:31:59;;;;;;;;;17.00;16.50;;;;;16.65;100.00;102195.66;5009126;28;45317;-87
2022/04/15 07:34:49;;;;;;;;;14.80;12.40;;;;;16.68;100.00;102180.22;4911414;28;44856;-86
2022/04/15 07:37:58;;;;;;;;;13.40;11.60;;;;;16.70;100.00;102180.13;4917874;28;44878;-84
2022/04/15 07:40:27;;;;;;;;;12.00;12.00;;;;;16.79;100.00;102192.06;4927332;28;45714;-82
2022/04/15 07:43:49;;;;;;;;;;;;;;;;;;;;;
2022/04/15 07:46:41;;;;;;;;;12.20;12.20;;;;;17.03;100.00;102190.34;4935403;28;73005;-84
2022/04/15 07:49:27;;;;;;;;;11.80;11.20;;;;;17.06;100.00;102190.09;4923000;28;44788;-83
2022/04/15 07:52:20;;;;;;;;;14.20;12.80;;;;;17.16;100.00;102190.31;4901498;28;45186;-84
2022/04/15 07:54:55;;;;;;;;;12.40;12.40;;;;;17.16;100.00;102188.50;4921961;28;45582;-84
2022/04/15 07:57:26;;;;;;;;;12.00;10.60;;;;;17.24;100.00;102192.44;4922102;28;45485;-84
2022/04/15 07:59:53;;;;;;;;;10.80;10.80;;;;;17.13;100.00;102190.53;4918235;28;46146;-85
2022/04/15 08:02:18;;;;;;;;;13.20;12.20;;;;;17.08;100.00;102182.81;4921125;28;44785;-83
2022/04/15 08:04:43;;;;;;;;;13.25;12.25;;;;;17.21;100.00;102186.34;4923175;28;45258;-85
2022/04/15 08:07:09;;;;;;;;;12.50;10.75;;;;;17.01;100.00;102188.72;4905537;28;45539;-87
2022/04/15 08:09:34;;;;;;;;;14.25;11.25;;;;;17.04;100.00;102188.50;4925143;28;44995;-86
2022/04/15 08:12:00;;;;;;;;;13.00;10.00;;;;;17.05;100.00;102177.66;4970062;28;45679;-87
2022/04/15 08:14:25;;;;;;;;;13.50;11.50;;;;;17.17;100.00;102184.00;4994338;28;46331;-85
2022/04/15 08:16:50;;;;;;;;;12.50;9.25;;;;;17.23;100.00;102193.44;5006367;28;44881;-86
2022/04/15 08:19:17;;;;;;;;;9.75;7.50;;;;;17.40;100.00;102195.75;4990354;28;45401;-83
2022/04/15 08:21:42;;;;;;;;;10.20;10.20;;;;;17.46;100.00;102193.47;4987881;28;44852;-84
2022/04/15 08:24:08;;;;;;;;;10.25;10.00;;;;;17.55;100.00;102196.44;4988845;28;46291;-86
2022/04/15 08:26:33;;;;;;;;;8.75;8.25;;;;;17.67;100.00;102192.88;4976338;28;44938;-85
2022/04/15 08:28:58;;;;;;;;;9.00;7.00;;;;;17.77;100.00;102203.84;4990074;28;45668;-85
2022/04/15 08:31:24;;;;;;;;;11.00;9.50;;;;;17.83;100.00;102201.53;4975598;28;45597;-83
2022/04/15 08:33:50;;;;;;;;;13.25;10.75;;;;;17.82;100.00;102201.66;4970324;28;47098;-83
2022/04/15 08:36:16;;;;;;;;;10.50;9.25;;;;;17.87;100.00;102192.28;4978070;28;44890;-84
2022/04/15 08:38:42;;;;;;;;;11.00;9.80;;;;;17.91;100.00;102195.59;4973863;28;45356;-84
2022/04/15 08:41:11;;;;;;;;;10.00;10.00;;;;;17.94;100.00;102204.31;4998236;28;44953;-85
2022/04/15 08:43:37;;;;;;;;;6.20;4.40;;;;;17.91;100.00;102198.28;5004214;28;45469;-85
2022/04/15 08:46:03;;;;;;;;;6.50;6.50;;;;;17.97;100.00;102201.38;4992595;28;44982;-85
2022/04/15 08:48:30;;;;;;;;;4.80;4.80;;;;;17.99;100.00;102203.97;4992652;28;45294;-82
2022/04/15 08:50:59;;;;;;;;;8.40;7.60;;;;;18.00;100.00;102212.88;4964369;28;45414;-85
2022/04/15 08:53:25;;;;;;;;;5.00;4.00;;;;;17.98;100.00;102204.91;4970997;28;46903;-85
2022/04/15 08:55:50;;;;;;;;;21.50;12.50;;;;;18.14;100.00;102199.28;4964315;28;45209;-85
2022/04/15 08:58:16;;;;;;;;;4.50;4.50;;;;;18.26;100.00;102195.63;4997772;28;45546;-84
2022/04/15 09:00:41;;;;;;;;;7.75;7.75;;;;;18.14;100.00;102205.50;4985110;28;44925;-85
2022/04/15 09:03:07;;;;;;;;;9.75;6.75;;;;;18.19;100.00;102207.84;4997454;28;44875;-85
2022/04/15 09:05:33;;;;;;;;;9.00;7.25;;;;;18.17;100.00;102217.84;4981144;28;45505;-84
2022/04/15 09:08:04;;;;;;;;;6.25;6.25;;;;;18.14;100.00;102218.94;4991322;28;45401;-85
2022/04/15 09:10:30;;;;;;;;;7.20;7.20;;;;;18.06;100.00;102218.66;4983740;28;45517;-84
2022/04/15 09:12:55;;;;;;;;;6.75;6.75;;;;;18.13;100.00;102222.63;4985204;28;45397;-85
2022/04/15 09:15:20;;;;;;;;;10.25;9.50;;;;;18.17;100.00;102210.63;4977105;28;45424;-85
2022/04/15 09:17:49;;;;;;;;;10.00;7.25;;;;;18.29;100.00;102221.47;4982543;28;45072;-86
2022/04/15 09:20:16;;;;;;;;;13.20;12.20;;;;;18.45;100.00;102216.59;4981364;28;45535;-85
2022/04/15 09:22:42;;;;;;;;;7.80;5.80;;;;;18.44;100.00;102221.13;4969675;28;45090;-84
2022/04/15 09:25:10;;;;;;;;;4.00;4.00;;;;;18.42;100.00;102230.28;4996773;28;45385;-84
2022/04/15 09:27:35;;;;;;;;;12.60;6.80;;;;;18.38;100.00;102229.69;4992631;28;44898;-85
2022/04/15 09:30:02;;;;;;;;;9.50;7.25;;;;;18.55;100.00;102220.31;4987517;28;45283;-84
2022/04/15 09:32:29;;;;;;;;;8.60;8.60;;;;;18.66;100.00;102225.75;4987335;28;45368;-84
2022/04/15 09:35:00;;;;;;;;;9.40;5.60;;;;;18.56;100.00;102210.41;4995777;28;45354;-83
2022/04/15 09:37:26;;;;;;;;;8.00;7.20;;;;;18.73;100.00;102218.91;4976937;28;44743;-83
2022/04/15 09:40:08;;;;;;;;;4.40;4.40;;;;;18.91;100.00;102213.09;4994133;28;45546;-84
2022/04/15 09:42:34;;;;;;;;;5.00;3.40;;;;;18.97;100.00;102218.84;4987432;28;45399;-83
2022/04/15 09:45:14;;;;;;;;;3.75;3.75;;;;;18.96;100.00;102216.28;5005901;28;45890;-84
2022/04/15 09:47:40;;;;;;;;;5.40;5.40;;;;;19.04;100.00;102211.13;5004638;28;44818;-84
2022/04/15 09:50:36;;;;;;;;;9.00;7.60;;;;;18.97;100.00;102212.59;5002033;28;45408;-85
2022/04/15 09:53:32;;;;;;;;;7.00;5.80;;;;;18.96;100.00;102218.97;5001862;28;45579;-86
2022/04/15 09:56:05;;;;;;;;;8.80;7.20;;;;;18.99;100.00;102222.25;5003995;28;44740;-89
2022/04/15 09:58:35;;;;;;;;;8.60;6.80;;;;;18.98;100.00;102217.84;5004704;28;45323;-87
2022/04/15 10:01:04;;;;;;;;;8.80;7.60;;;;;19.13;100.00;102213.09;5017381;28;44919;-88
2022/04/15 10:03:35;;;;;;;;;4.80;4.80;;;;;19.21;100.00;102210.63;4983436;28;45276;-89
2022/04/15 10:06:01;;;;;;;;;5.80;5.80;;;;;19.26;100.00;102200.34;5000684;28;45366;-88
2022/04/15 10:08:28;;;;;;;;;6.40;4.60;;;;;19.38;100.00;102205.72;4985420;28;44684;-88
2022/04/15 10:10:55;;;;;;;;;9.20;6.20;;;;;19.22;100.00;102212.34;4991627;28;44835;-89
2022/04/15 10:13:26;;;;;;;;;9.80;8.80;;;;;18.79;100.00;102206.81;4996602;28;47408;-88
2022/04/15 10:15:53;;;;;;;;;5.00;5.00;;;;;18.95;100.00;102201.06;5009172;28;44744;-88
2022/04/15 10:18:23;;;;;;;;;4.00;4.00;;;;;19.22;100.00;102198.88;4996464;28;44640;-87
2022/04/15 10:20:52;;;;;;;;;48.00;40.00;;;;;19.43;100.00;102204.34;4992675;28;45319;-89
2022/04/15 10:23:20;;;;;;;;;20.25;17.00;;;;;19.62;100.00;102208.28;4989131;28;46699;-89
2022/04/15 10:25:48;;;;;;;;;9.00;7.20;;;;;19.58;100.00;102207.69;4991812;28;44681;-88
2022/04/15 10:28:17;;;;;;;;;8.60;7.40;;;;;19.36;100.00;102192.38;4974255;28;44862;-89
2022/04/15 10:31:03;;;;;;;;;9.20;5.00;;;;;19.55;100.00;102198.97;5002677;28;45376;-89
2022/04/15 10:33:34;;;;;;;;;32.75;28.00;;;;;19.83;100.00;102192.22;4984957;28;45411;-88
2022/04/15 10:36:09;;;;;;;;;11.60;9.40;;;;;19.95;100.00;102185.78;4998176;28;45254;-89
2022/04/15 10:38:35;;;;;;;;;5.40;5.40;;;;;20.05;100.00;102181.31;4987396;28;45344;-88
2022/04/15 10:41:13;;;;;;;;;5.50;5.50;;;;;20.01;100.00;102188.81;4990128;28;45341;-88
2022/04/15 10:43:58;;;;;;;;;3.80;3.80;;;;;19.82;100.00;102187.78;4986613;28;46810;-89
2022/04/15 10:46:31;;;;;;;;;3.60;2.20;;;;;19.92;100.00;102181.50;5002201;28;45147;-88
2022/04/15 10:49:02;;;;;;;;;4.00;4.00;;;;;19.71;100.00;102189.53;4984836;28;45371;-89
2022/04/15 10:51:34;;;;;;;;;4.00;4.00;;;;;19.58;100.00;102190.63;5001826;28;45342;-89
2022/04/15 10:54:37;;;;;;;;;6.20;6.20;;;;;19.70;100.00;102195.91;4999696;28;46708;-88
2022/04/15 10:57:04;;;;;;;;;4.00;4.00;;;;;19.84;100.00;102188.53;5002056;28;44743;-87
2022/04/15 11:03:16;;;;;;;;;4.00;4.00;;;;;19.83;100.00;102166.09;5003175;28;44930;-88
2022/04/15 11:06:20;;;;;;;;;4.60;4.60;;;;;19.56;100.00;102189.91;4849265;29;45514;-88
2022/04/15 11:23:31;;;;;;;;;3.80;3.80;;;;;20.20;100.00;102176.47;4816847;29;44858;-88
2022/04/15 11:27:00;;;;;;;;;2.00;2.00;;;;;19.92;100.00;102172.53;4816528;29;45244;-87
2022/04/15 11:32:55;;;;;;;;;4.00;3.20;;;;;19.99;100.00;102166.50;4792883;29;45100;-86
2022/04/15 11:39:50;;;;;;;;;8.40;7.00;;;;;20.63;100.00;102160.16;4848076;29;45314;-87
2022/04/15 11:42:56;;;;;;;;;5.40;4.20;;;;;20.96;100.00;102161.75;4839599;29;44871;-89
2022/04/15 11:46:18;;;;;;;;;4.80;3.00;;;;;20.96;99.41;102160.91;4860439;29;46778;-88
2022/04/15 11:49:04;;;;;;;;;4.60;4.60;;;;;20.85;100.00;102161.88;4805868;29;44868;-88
2022/04/15 11:51:55;;;;;;;;;3.80;3.80;;;;;20.88;98.95;102150.75;4812087;29;44852;-88
2022/04/15 11:55:27;;;;;;;;;4.20;4.20;;;;;20.90;96.66;102162.31;4925072;28;45583;-87
2022/04/15 11:58:43;;;;;;;;;;;;;;;;;;;;;
2022/04/15 12:08:23;;;;;;;;;2.00;2.00;;;;;20.97;95.58;102154.50;4927641;28;45449;-89
2022/04/15 12:11:22;;;;;;;;;2.00;2.00;;;;;20.97;90.19;102163.47;4934229;28;45510;-89
2022/04/15 12:14:01;;;;;;;;;3.00;3.00;;;;;21.09;93.33;102152.59;4932871;28;44843;-88
2022/04/15 12:16:32;;;;;;;;;9.60;7.20;;;;;21.26;94.15;102155.47;4929216;28;44819;-89
2022/04/15 12:18:59;;;;;;;;;0.60;0.00;;;;;21.41;97.66;102150.56;4930600;28;44928;-88
2022/04/15 12:21:32;;;;;;;;;1.20;1.20;;;;;21.28;93.56;102167.00;4945237;28;45448;-88
2022/04/15 12:24:13;;;;;;;;;10.60;8.20;;;;;21.25;93.70;102145.66;4945918;28;44856;-89
2022/04/15 12:26:53;;;;;;;;;3.00;3.00;;;;;21.32;90.30;102153.22;4943445;28;45473;-86
2022/04/15 12:29:47;;;;;;;;;4.40;2.80;;;;;21.08;91.41;102149.03;4945540;28;45595;-89
2022/04/15 12:32:35;;;;;;;;;5.00;4.00;;;;;21.20;90.93;102156.03;4946599;28;45262;-87
2022/04/15 12:35:00;;;;;;;;;5.00;4.00;;;;;21.33;93.00;102150.41;4949253;28;44804;-88
2022/04/15 12:37:56;;;;;;;;;1.00;1.00;;;;;21.52;91.28;102165.84;4942824;28;45455;-89
2022/04/15 12:40:21;;;;;;;;;2.80;2.20;;;;;21.47;96.08;102136.50;4940883;28;45012;-88
2022/04/15 12:42:49;;;;;;;;;6.50;6.50;;;;;21.47;93.28;102146.47;4995606;28;45922;-90
2022/04/15 12:45:19;;;;;;;;;4.00;4.00;;;;;21.62;96.00;102136.94;4988621;28;45224;-90
2022/04/15 12:48:10;;;;;;;;;10.20;9.20;;;;;21.48;90.56;102150.88;4985420;28;45448;-88
2022/04/15 12:50:39;;;;;;;;;5.60;5.60;;;;;21.29;91.16;102149.78;4990631;28;45254;-88
2022/04/15 14:55:19;;;;;;;;;6.60;6.60;;;;;24.55;76.22;102061.09;5027956;28;44858;-87
2022/04/15 14:58:18;;;;;;;;;18.80;15.60;;;;;24.82;74.26;102070.91;5024258;28;44838;-88
2022/04/15 15:05:00;;;;;;;;;11.20;11.20;;;;;25.76;65.67;102088.84;4971634;28;44915;-89
2022/04/15 15:11:14;;;;;;;;;12.40;11.20;;;;;26.52;61.91;102084.88;4984068;28;44848;-88
2022/04/15 15:15:24;;;;;;;;;;;;;;;;;;;;;
2022/04/15 15:31:49;;;;;;;;;;;;;;;;;;;;;
2022/04/15 15:35:33;;;;;;;;;;;;;;;;;;;;;
2022/04/15 15:52:29;;;;;;;;;21.25;20.00;;;;;24.57;76.85;102063.66;4816139;29;45501;-88
2022/04/15 17:14:20;;;;;;;;;29.60;26.00;;;;;22.67;85.54;102074.69;4920807;28;44842;-88
2022/04/15 17:48:14;;;;;;;;;30.25;29.25;;;;;21.74;95.69;102099.78;4773095;29;45567;-89
2022/04/15 18:00:52;;;;;;;;;26.25;25.25;;;;;21.41;99.48;102096.47;4750293;29;45055;-88
2022/04/15 18:28:53;;;;;;;;;24.25;21.75;;;;;19.77;100.00;102097.34;4886219;29;45417;-89
2022/04/15 19:37:43;;;;;;;;;;;;;;;;;;;;;
2022/04/15 19:41:31;;;;;;;;;30.75;29.00;;;;;18.21;100.00;102187.06;4903381;29;72101;-89
2022/04/15 22:06:27;;;;;;;;;22.50;21.50;;;;;16.51;100.00;102217.22;4226772;26;45376;-88
2022/04/15 22:09:30;;;;;;;;;;;;;;;;;;;;;
2022/04/15 22:12:06;;;;;;;;;33.50;27.00;;;;;16.34;100.00;102229.97;4896068;29;68036;-88
2022/04/15 22:14:38;;;;;;;;;27.00;25.50;;;;;16.27;100.00;102220.59;4897965;29;45638;-88
2022/04/15 22:17:30;;;;;;;;;25.00;23.25;;;;;16.21;100.00;102225.53;4894292;29;45013;-87
2022/04/15 22:20:06;;;;;;;;;19.50;19.00;;;;;16.16;100.00;102224.00;4880415;29;44835;-89
2022/04/15 22:22:43;;;;;;;;;30.25;24.25;;;;;16.11;100.00;102231.50;4871792;29;45534;-87
2022/04/15 22:25:33;;;;;;;;;23.00;22.50;;;;;16.03;100.00;102224.91;4888239;29;44822;-88
2022/04/15 22:28:05;;;;;;;;;27.50;24.00;;;;;15.98;100.00;102232.41;4887271;29;46954;-87
2022/04/15 22:30:34;;;;;;;;;15.00;15.00;;;;;15.95;100.00;102236.13;4870101;29;45397;-88
2022/04/15 22:33:05;;;;;;;;;25.75;22.00;;;;;15.87;100.00;102233.97;4870636;29;44790;-88
2022/04/15 22:35:37;;;;;;;;;23.50;22.75;;;;;15.82;100.00;102232.56;4889544;29;44854;-88
2022/04/15 22:38:42;;;;;;;;;;;;;;;;;;;;;
2022/04/15 22:41:15;;;;;;;;;21.75;19.50;;;;;15.73;100.00;102242.06;4861556;29;72626;-88
2022/04/15 22:44:00;;;;;;;;;20.75;20.00;;;;;15.69;100.00;102248.56;4854576;29;45401;-89
2022/04/15 22:46:29;;;;;;;;;19.25;18.00;;;;;15.63;100.00;102246.25;4887759;28;45355;-87
2022/04/15 22:49:17;;;;;;;;;;;;;;;;;;;;;
2022/04/15 22:52:16;;;;;;;;;22.50;18.50;;;;;15.53;100.00;102250.47;4922200;28;72090;-88
2022/04/15 22:57:34;;;;;;;;;21.50;17.50;;;;;15.39;100.00;102254.88;4870757;29;44937;-88
2022/04/15 23:00:42;;;;;;;;;19.50;18.50;;;;;15.37;100.00;102266.63;4868538;29;45179;-88
2022/04/15 23:06:41;;;;;;;;;19.25;13.75;;;;;15.25;100.00;102249.53;4870316;29;45566;-87
2022/04/15 23:09:22;;;;;;;;;21.50;16.25;;;;;15.24;100.00;102249.63;4890585;29;44808;-87
2022/04/15 23:11:56;;;;;;;;;16.50;13.50;;;;;15.20;100.00;102259.66;4859660;29;45335;-86
2022/04/15 23:14:30;;;;;;;;;23.25;16.25;;;;;15.15;100.00;102259.94;4880243;29;44943;-87
2022/04/15 23:17:01;;;;;;;;;20.25;19.00;;;;;15.13;100.00;102266.34;4860157;29;44899;-88
2022/04/15 23:19:31;;;;;;;;;14.25;12.75;;;;;15.07;100.00;102266.72;4890967;29;44901;-87
2022/04/15 23:22:01;;;;;;;;;19.00;16.50;;;;;15.03;100.00;102258.00;4868720;29;46615;-88
2022/04/15 23:24:28;;;;;;;;;20.25;18.50;;;;;15.01;100.00;102267.97;4895912;28;45521;-88
2022/04/15 23:26:54;;;;;;;;;16.00;14.75;;;;;14.98;100.00;102273.50;4943237;28;44782;-87
2022/04/15 23:29:21;;;;;;;;;17.25;15.75;;;;;14.88;100.00;102270.50;4945635;28;44862;-87
2022/04/15 23:31:59;;;;;;;;;;;;;;;;;;;;;
2022/04/15 23:34:31;;;;;;;;;15.75;15.75;;;;;14.86;100.00;102282.28;4943902;28;72864;-87
2022/04/15 23:36:58;;;;;;;;;13.80;13.80;;;;;14.84;100.00;102279.72;4942598;28;45372;-87
2022/04/15 23:39:24;;;;;;;;;16.00;16.00;;;;;14.83;100.00;102277.09;4945343;28;44800;-88
2022/04/15 23:41:55;;;;;;;;;17.25;16.50;;;;;14.79;100.00;102270.22;4927943;28;45381;-88
2022/04/15 23:44:29;;;;;;;;;21.75;19.25;;;;;14.73;100.00;102268.78;4925605;28;44791;-85